AirNav   ProFlight Series 2 Aviation Headset
 
 560 users online  

15MI Grant Pad Heliport
Fraser, Michigan, USA

GOING TO FRASER?


FAA INFORMATION EFFECTIVE 16 JULY 2020

Location

FAA Identifier: 15MI
Lat/Long: 42-32-40.1260N 082-55-53.7120W
42-32.668767N 082-55.895200W
42.5444794,-82.9315867
(estimated)
Elevation: 638 ft. / 194 m (estimated)
Variation: 06W (1985)
From city: 1 mile NE of FRASER, MI
Time zone: UTC -4 (UTC -5 during Standard Time)
Zip code: 48026

Heliport Operations

Heliport use: Private use. Permission required prior to landing
Activation date: 02/1987
Control tower: no
ARTCC: CLEVELAND CENTER
FSS: LANSING FLIGHT SERVICE STATION
Attendance: UNATNDD
Wind indicator: yes
Segmented circle: no

Heliport Communications

WX ASOS at DET (9 nm SW): PHONE 313-371-9696
WX AWOS-3 at VLL (11 nm W): 119.475 (248-288-4649)

Nearby radio navigation aids

VOR radial/distance  VOR name  Freq  Var
DXOr050/27.7DETROIT VOR/DME113.4006W
SVMr077/30.4SALEM VORTAC114.3003W
CRLr041/37.8CARLETON VOR/DME115.7003W

 
NDB name  Hdg/Dist  Freq  Var  ID
GROSSE ILE027/28.441907WRYS .-. -.-- ...

Heliport Services

Runway Information

Helipad H1

Dimensions: 30 x 30 ft. / 9 x 9 m
Surface: concrete
Traffic pattern: leftleft

Heliport Ownership and Management from official FAA records

Ownership: Privately-owned
Owner: GRANT INDUSTRIES, INC.
33415 GROESBECK HWY
FRASER, MI 48026
Phone 586-293-9200
Manager: STEVEN GRANT
33415 GROESBECK HWY
FRASER, MI 48026
Phone 586-293-9200

Additional Remarks

A33 ROOFTOP.
FOR CD CTC CLEVELAND ARTCC AT 440-774-0490.

Instrument Procedures

There are no published instrument procedures at 15MI.

Some nearby airports with instrument procedures:

KMTC - Selfridge Air National Guard Base (6 nm NE)
KDET - Coleman A Young Municipal Airport (9 nm SW)
KVLL - Oakland/Troy Airport (11 nm W)
57D - Ray Community Airport (12 nm N)
D98 - Romeo State Airport (15 nm N)
 
Loc | Ops | Rwys | IFR | FBO | Links
Com | Nav | Svcs | Stats | Notes
Area around 15MI (Grant Pad Heliport)
 
Road maps at: MapQuest Bing Google
 
Aerial photo
No photo
 
Sectional chart

 
Airport distance calculator
Flying to Grant Pad Heliport? Find the distance to fly.

From to 15MI

Sunrise and sunset
Times for 13-Aug-2020
 Local
(UTC-4)
 Zulu
(UTC)
Morning civil twilight06:0810:08
Sunrise06:3810:38
Sunset20:3400:34
Evening civil twilight21:0501:05

Current date and time
Zulu (UTC)  13-Aug-2020 05:45:59
Local (UTC-4)  13-Aug-2020 01:45:59
 
METAR
KMTC 
7nm NE 
130456Z AUTO 00000KT 10SM CLR 18/18 A3012 RMK AO2 SLP201 T01770177 402850144 $
KDET 
9nm SW 
130453Z 00000KT 10SM CLR 21/14 A3013 RMK AO2 SLP197 T02110144 402890172
KVLL 
11nm W 
130535Z AUTO 00000KT 10SM CLR 21/13 A3015 RMK AO2 T02100125
CYQG 
16nm S 
130500Z AUTO 00000KT 9SM CLR 17/15 A3012 RMK SLP199 DENSITY ALT 700FT
TAF
KMTC 
7nm NE 
130100Z 1301/1407 08006KT 9999 FEW100 FEW250 QNH3008INS TX28/1320Z TN15/1311Z LAST NO AMDS AFT 1303 NEXT 1309
KDET 
9nm SW 
121720Z 1218/1318 12005KT P6SM SCT250 FM130400 05005KT P6SM SKC
CYQG 
16nm S 
121934Z 1219/1318 08005KT P6SM SKC TEMPO 1219/1224 5SM HZ FM130200 VRB03KT P6SM SKC BECMG 1310/1312 01007KT FM131500 03010KT P6SM FEW240 RMK FCST BASED ON AUTO OBS. NXT FCST BY 130000Z
NOTAMs
Click for the latest NOTAMs
NOTAMs are issued by the DoD/FAA and will open in a separate window not controlled by AirNav.

 

 
 

Would you like to see your business listed on this page?

 If your business provides an interesting product or service to pilots, flight crews, aircraft, or users of the Grant Pad Heliport, you should consider listing it here.  To start the listing process, click on the button below
 
Add a business
 

Other Pages about Grant Pad Heliport

Update a link
 
Copyright © AirNav, LLC. All rights reserved. Privacy Policy  Contact